createdAt,value
2018-10-05T00:01:38.380Z,13.75
2018-10-05T00:04:05.759Z,11.08
2018-10-05T00:06:33.063Z,14.00
2018-10-05T00:09:00.428Z,13.13
2018-10-05T00:11:27.763Z,12.90
2018-10-05T00:13:55.123Z,16.48
2018-10-05T00:16:22.517Z,14.68
2018-10-05T00:18:49.847Z,13.43
2018-10-05T00:21:17.291Z,17.92
2018-10-05T00:23:44.690Z,20.80
2018-10-05T00:26:12.146Z,15.23
2018-10-05T00:28:39.535Z,13.43
2018-10-05T00:31:07.101Z,16.15
2018-10-05T00:33:34.419Z,16.07
2018-10-05T00:36:01.763Z,12.82
2018-10-05T00:38:29.150Z,19.57
2018-10-05T00:40:58.762Z,16.42
2018-10-05T00:43:26.060Z,12.70
2018-10-05T00:45:53.450Z,14.85
2018-10-05T00:48:20.754Z,13.25
2018-10-05T00:50:48.082Z,12.43
2018-10-05T00:53:15.421Z,16.37
2018-10-05T00:55:42.740Z,13.10
2018-10-05T00:58:10.098Z,21.02
2018-10-05T01:00:37.480Z,13.25
2018-10-05T01:03:04.809Z,13.85
2018-10-05T01:05:32.212Z,14.95
2018-10-05T01:07:59.720Z,14.50
2018-10-05T01:10:27.000Z,16.02
2018-10-05T01:12:54.303Z,14.47
2018-10-05T01:15:21.676Z,13.48
2018-10-05T01:17:48.982Z,13.25
2018-10-05T01:20:16.421Z,11.73
2018-10-05T01:22:43.867Z,14.73
2018-10-05T01:25:11.186Z,16.67
2018-10-05T01:27:38.760Z,16.60
2018-10-05T01:30:10.154Z,14.98
2018-10-05T01:32:37.531Z,14.20
2018-10-05T01:35:04.835Z,12.70
2018-10-05T01:37:32.130Z,14.35
2018-10-05T01:39:59.442Z,13.15
2018-10-05T01:42:26.727Z,16.12
2018-10-05T01:44:54.051Z,12.80
2018-10-05T01:47:21.357Z,14.28
2018-10-05T01:49:48.667Z,9.70
2018-10-05T01:52:16.490Z,12.55
2018-10-05T01:54:43.839Z,11.65
2018-10-05T01:57:11.141Z,14.87
2018-10-05T01:59:38.550Z,10.38
2018-10-05T02:02:05.911Z,14.58
2018-10-05T02:04:33.264Z,9.88
2018-10-05T02:07:00.542Z,13.83
2018-10-05T02:09:27.896Z,14.20
2018-10-05T02:11:55.178Z,12.78
2018-10-05T02:14:22.470Z,12.60
2018-10-05T02:16:50.281Z,9.98
2018-10-05T02:19:17.592Z,11.30
2018-10-05T02:21:44.902Z,12.35
2018-10-05T02:24:12.203Z,13.48
2018-10-05T02:26:39.734Z,15.85
2018-10-05T02:29:07.075Z,11.22
2018-10-05T02:31:34.366Z,11.40
2018-10-05T02:34:01.677Z,12.50
2018-10-05T02:36:28.986Z,10.32
2018-10-05T02:38:56.283Z,14.00
2018-10-05T02:41:23.579Z,12.10
2018-10-05T02:43:50.919Z,10.82
2018-10-05T02:46:18.278Z,11.18
2018-10-05T02:48:45.563Z,13.88
2018-10-05T02:51:12.903Z,9.65
2018-10-05T02:53:40.221Z,13.30
2018-10-05T02:56:07.580Z,13.15
2018-10-05T02:58:34.927Z,12.00
2018-10-05T03:01:07.779Z,14.68
2018-10-05T03:03:35.119Z,14.20
2018-10-05T03:06:02.441Z,13.58
2018-10-05T03:08:29.759Z,13.90
2018-10-05T03:10:57.083Z,12.35
2018-10-05T03:13:24.405Z,17.20
2018-10-05T03:15:51.699Z,14.10
2018-10-05T03:18:19.056Z,11.70
2018-10-05T03:20:46.415Z,12.88
2018-10-05T03:23:13.962Z,11.28
2018-10-05T03:25:41.329Z,11.60
2018-10-05T03:28:08.646Z,12.00
2018-10-05T03:30:35.978Z,13.75
2018-10-05T03:33:03.273Z,10.90
2018-10-05T03:35:30.586Z,12.58
2018-10-05T03:37:57.915Z,12.33
2018-10-05T03:40:25.247Z,10.75
2018-10-05T03:42:52.513Z,9.43
2018-10-05T03:45:19.791Z,11.95
2018-10-05T03:47:47.114Z,13.58
2018-10-05T03:50:14.458Z,15.78
2018-10-05T03:52:41.773Z,13.68
2018-10-05T03:55:09.147Z,11.40
2018-10-05T03:57:36.457Z,12.70
2018-10-05T04:00:03.811Z,15.25
2018-10-05T04:02:31.762Z,12.37
2018-10-05T04:04:59.073Z,10.95
2018-10-05T04:07:26.416Z,11.97
2018-10-05T04:09:53.761Z,10.48
2018-10-05T04:12:21.092Z,12.45
2018-10-05T04:14:48.401Z,10.93
2018-10-05T04:17:15.835Z,10.35
2018-10-05T04:19:43.175Z,13.22
2018-10-05T04:22:10.635Z,13.13
2018-10-05T04:24:37.991Z,10.53
2018-10-05T04:27:05.330Z,13.45
2018-10-05T04:29:32.892Z,12.50
2018-10-05T04:32:00.182Z,10.60
2018-10-05T04:34:27.488Z,11.83
2018-10-05T04:36:54.805Z,12.85
2018-10-05T04:39:22.101Z,15.23
2018-10-05T04:41:49.471Z,12.50
2018-10-05T04:44:16.835Z,13.22
2018-10-05T04:46:45.155Z,14.03
2018-10-05T04:49:12.662Z,15.80
2018-10-05T04:51:40.003Z,11.10
2018-10-05T04:54:07.365Z,15.25
2018-10-05T04:56:34.701Z,12.60
2018-10-05T04:59:02.043Z,14.05
2018-10-05T05:01:29.376Z,12.93
2018-10-05T05:03:57.507Z,13.08
2018-10-05T05:06:26.300Z,11.75
2018-10-05T05:08:56.023Z,10.38
2018-10-05T05:11:23.500Z,13.03
2018-10-05T05:13:56.191Z,13.55
2018-10-05T05:16:24.082Z,18.92
2018-10-05T05:18:52.054Z,13.25
2018-10-05T05:21:19.406Z,12.13
2018-10-05T05:23:46.967Z,14.75
2018-10-05T05:26:14.396Z,12.43
2018-10-05T05:28:42.921Z,14.95
2018-10-05T05:31:11.694Z,13.22
2018-10-05T05:33:40.608Z,16.25
2018-10-05T05:36:08.111Z,12.40
2018-10-05T05:38:35.987Z,12.35
2018-10-05T05:41:03.461Z,12.10
2018-10-05T05:43:31.143Z,17.40
2018-10-05T05:45:58.891Z,15.60
2018-10-05T05:48:26.206Z,11.57
2018-10-05T05:50:53.518Z,12.68
2018-10-05T05:53:20.902Z,11.50
2018-10-05T05:55:48.463Z,10.03
2018-10-05T05:58:16.318Z,13.58
2018-10-05T06:00:44.057Z,10.90
2018-10-05T06:03:11.415Z,18.35
2018-10-05T06:05:38.988Z,14.47
2018-10-05T06:08:06.761Z,15.38
2018-10-05T06:10:37.384Z,16.25
2018-10-05T06:13:06.252Z,17.40
2018-10-05T06:15:33.603Z,11.78
2018-10-05T06:18:01.031Z,13.78
2018-10-05T06:20:28.416Z,14.87
2018-10-05T06:22:56.035Z,13.30
2018-10-05T06:25:23.444Z,13.43
2018-10-05T06:27:51.007Z,15.08
2018-10-05T06:30:18.687Z,12.73
2018-10-05T06:32:46.289Z,11.08
2018-10-05T06:35:13.605Z,9.95
2018-10-05T06:37:41.175Z,12.37
2018-10-05T06:40:08.501Z,12.82
2018-10-05T06:42:35.913Z,14.38
2018-10-05T06:45:03.271Z,12.10
2018-10-05T06:47:30.618Z,14.05
2018-10-05T06:49:57.931Z,11.20
2018-10-05T06:52:25.265Z,10.85
2018-10-05T06:54:52.596Z,10.95
2018-10-05T06:57:20.462Z,12.28
2018-10-05T06:59:47.829Z,12.47
2018-10-05T07:02:15.416Z,11.60
2018-10-05T07:04:43.102Z,15.58
2018-10-05T07:07:10.530Z,12.37
2018-10-05T07:09:37.964Z,11.00
2018-10-05T07:12:05.523Z,12.07
2018-10-05T07:14:32.929Z,10.13
2018-10-05T07:17:00.397Z,14.13
2018-10-05T07:19:28.091Z,11.78
2018-10-05T07:21:55.643Z,11.12
2018-10-05T07:24:23.311Z,13.50
2018-10-05T07:26:51.058Z,12.00
2018-10-05T07:29:18.445Z,10.05
2018-10-05T07:31:45.779Z,9.43
2018-10-05T07:34:13.543Z,8.83
2018-10-05T07:36:40.884Z,8.30
2018-10-05T07:39:08.772Z,8.50
2018-10-05T07:41:36.128Z,10.40
2018-10-05T07:46:37.506Z,8.90
2018-10-05T07:49:04.874Z,9.10
2018-10-05T07:51:32.258Z,9.57
2018-10-05T07:53:59.615Z,11.20
2018-10-05T07:56:27.156Z,8.40
2018-10-05T07:58:54.808Z,12.13
2018-10-05T08:01:22.329Z,10.20
2018-10-05T08:03:49.672Z,11.43
2018-10-05T08:06:17.021Z,8.67
2018-10-05T08:08:44.404Z,9.87
2018-10-05T08:11:12.110Z,9.00
2018-10-05T08:13:39.962Z,8.30
2018-10-05T08:16:07.438Z,7.10
2018-10-05T08:18:34.890Z,8.03
2018-10-05T08:21:02.480Z,8.90
2018-10-05T08:23:29.874Z,8.93
2018-10-05T08:25:57.262Z,9.67
2018-10-05T08:28:24.716Z,8.40
2018-10-05T08:30:52.080Z,11.83
2018-10-05T08:33:19.536Z,9.47
2018-10-05T08:35:46.929Z,10.00
2018-10-05T08:38:14.340Z,8.50
2018-10-05T08:40:41.741Z,7.50
2018-10-05T08:43:09.137Z,7.63
2018-10-05T08:45:36.567Z,8.77
2018-10-05T08:48:04.035Z,10.03
2018-10-05T08:50:31.699Z,8.00
2018-10-05T08:52:59.243Z,7.53
2018-10-05T08:55:26.820Z,6.73
2018-10-05T08:57:54.165Z,7.37
2018-10-05T09:00:21.607Z,8.47
2018-10-05T09:02:48.956Z,9.40
2018-10-05T09:05:16.536Z,8.73
2018-10-05T09:07:43.914Z,10.50
2018-10-05T09:10:11.235Z,9.03
2018-10-05T09:12:38.992Z,8.27
2018-10-05T09:15:06.433Z,7.77
2018-10-05T09:17:34.668Z,6.80
2018-10-05T09:20:02.334Z,6.93
2018-10-05T09:22:29.679Z,7.93
2018-10-05T09:24:59.906Z,6.87
2018-10-05T09:27:27.665Z,8.10
2018-10-05T09:29:55.528Z,6.40
2018-10-05T09:32:23.393Z,10.50
2018-10-05T09:34:51.041Z,9.40
2018-10-05T09:37:19.756Z,7.80
2018-10-05T09:39:48.375Z,9.10
2018-10-05T09:42:16.154Z,8.87
2018-10-05T09:44:43.553Z,8.43
2018-10-05T09:47:11.843Z,7.20
2018-10-05T09:49:40.864Z,9.43
2018-10-05T09:52:08.642Z,8.20
2018-10-05T09:54:36.543Z,6.87
2018-10-05T09:57:05.091Z,8.03
2018-10-05T09:59:32.670Z,7.93
2018-10-05T10:02:05.717Z,7.90
2018-10-05T10:04:33.343Z,9.27
2018-10-05T10:07:00.916Z,8.47
2018-10-05T10:09:29.425Z,6.67
2018-10-05T10:11:56.981Z,7.77
2018-10-05T10:14:24.579Z,9.40
2018-10-05T10:16:52.215Z,9.83
2018-10-05T10:19:20.627Z,9.30
2018-10-05T10:21:48.153Z,7.40
2018-10-05T10:24:15.442Z,6.03
2018-10-05T10:26:43.817Z,7.00
2018-10-05T10:29:12.735Z,9.50
2018-10-05T10:31:41.464Z,6.10
2018-10-05T10:34:10.172Z,6.90
2018-10-05T10:36:38.349Z,10.10
2018-10-05T10:39:06.683Z,7.20
2018-10-05T10:41:34.235Z,7.53
2018-10-05T10:44:02.157Z,8.43
2018-10-05T10:46:30.096Z,7.70
2018-10-05T10:48:58.130Z,8.27
2018-10-05T10:51:25.528Z,8.00
2018-10-05T10:53:52.879Z,7.80
2018-10-05T10:56:20.249Z,7.60
2018-10-05T10:58:47.531Z,6.57
2018-10-05T11:01:15.122Z,7.00
2018-10-05T11:03:42.445Z,9.43
2018-10-05T11:06:10.023Z,6.43
2018-10-05T11:08:37.370Z,8.17
2018-10-05T11:11:05.157Z,8.93
2018-10-05T11:13:32.616Z,8.57
2018-10-05T11:15:59.951Z,7.00
2018-10-05T11:18:27.315Z,10.40
2018-10-05T11:20:54.878Z,7.20
2018-10-05T11:23:23.017Z,7.33
2018-10-05T11:25:50.447Z,6.33
2018-10-05T11:28:17.745Z,5.87
2018-10-05T11:30:45.081Z,9.27
2018-10-05T11:33:12.532Z,8.33
2018-10-05T11:35:40.067Z,11.27
2018-10-05T11:38:07.665Z,6.50
2018-10-05T11:40:35.232Z,7.40
2018-10-05T11:43:02.584Z,8.83
2018-10-05T11:45:29.917Z,7.83
2018-10-05T11:47:57.751Z,7.10
2018-10-05T11:50:25.056Z,6.80
2018-10-05T11:52:52.921Z,8.00
2018-10-05T11:55:21.418Z,8.77
2018-10-05T11:57:48.772Z,7.93
2018-10-05T12:00:18.249Z,9.83
2018-10-05T12:02:46.315Z,6.60
2018-10-05T12:05:13.720Z,7.47
2018-10-05T12:07:41.104Z,7.90
2018-10-05T12:10:08.483Z,7.73
2018-10-05T12:12:35.805Z,6.70
2018-10-05T12:15:03.285Z,7.70
2018-10-05T12:17:31.056Z,6.80
2018-10-05T12:19:58.707Z,8.10
2018-10-05T12:22:26.063Z,6.27
2018-10-05T12:24:53.578Z,7.80
2018-10-05T12:27:20.926Z,6.07
2018-10-05T12:29:49.000Z,6.70
2018-10-05T12:32:16.382Z,5.93
2018-10-05T12:34:43.788Z,10.20
2018-10-05T12:37:11.394Z,7.07
2018-10-05T12:39:38.743Z,9.33
2018-10-05T12:42:06.637Z,7.10
2018-10-05T12:44:34.234Z,7.70
2018-10-05T12:47:01.623Z,8.57
2018-10-05T12:49:28.962Z,6.53
2018-10-05T12:51:56.291Z,8.93
2018-10-05T12:54:24.022Z,10.10
2018-10-05T12:56:51.403Z,6.60
2018-10-05T12:59:18.838Z,8.07
2018-10-05T13:01:46.435Z,7.83
2018-10-05T13:04:13.985Z,9.00
2018-10-05T13:06:41.764Z,7.40
2018-10-05T13:09:10.156Z,6.10
2018-10-05T13:11:38.219Z,10.37
2018-10-05T13:14:07.075Z,7.17
2018-10-05T13:16:35.516Z,7.37
2018-10-05T13:19:03.631Z,7.00
2018-10-05T13:21:31.067Z,7.47
2018-10-05T13:23:58.647Z,10.67
2018-10-05T13:26:26.175Z,8.63
2018-10-05T13:28:53.531Z,6.23
2018-10-05T13:31:21.057Z,7.93
2018-10-05T13:33:48.622Z,6.10
2018-10-05T13:36:16.283Z,6.10
2018-10-05T13:38:43.660Z,7.40
2018-10-05T13:41:10.963Z,7.93
2018-10-05T13:43:38.302Z,7.00
2018-10-05T13:46:05.621Z,8.57
2018-10-05T13:48:32.960Z,7.60
2018-10-05T13:51:00.294Z,7.20
2018-10-05T13:53:28.326Z,7.83
2018-10-05T13:55:55.680Z,8.17
2018-10-05T13:58:22.969Z,9.03
2018-10-05T14:00:50.307Z,5.37
2018-10-05T14:03:17.684Z,5.73
2018-10-05T14:05:45.011Z,5.83
2018-10-05T14:08:12.702Z,6.47
2018-10-05T14:10:40.134Z,6.33
2018-10-05T14:13:07.471Z,12.80
2018-10-05T14:15:35.023Z,9.47
2018-10-05T14:18:02.656Z,10.70
2018-10-05T14:20:30.261Z,6.80
2018-10-05T14:22:58.184Z,9.27
2018-10-05T14:25:26.053Z,7.73
2018-10-05T14:27:53.742Z,9.37
2018-10-05T14:30:21.835Z,5.70
2018-10-05T14:32:49.317Z,7.17
2018-10-05T14:35:16.982Z,7.37
2018-10-05T14:37:44.600Z,7.57
2018-10-05T14:40:12.195Z,9.63
2018-10-05T14:42:39.679Z,8.93
2018-10-05T14:45:07.491Z,7.70
2018-10-05T14:47:35.012Z,6.93
2018-10-05T14:50:02.476Z,6.23
2018-10-05T14:52:30.492Z,5.53
2018-10-05T14:54:57.855Z,11.00
2018-10-05T14:57:25.282Z,5.23
2018-10-05T14:59:53.715Z,9.27
2018-10-05T15:02:21.042Z,11.10
2018-10-05T15:04:49.013Z,7.03
2018-10-05T15:07:16.771Z,10.10
2018-10-05T15:09:44.299Z,6.30
2018-10-05T15:12:11.778Z,8.13
2018-10-05T15:14:40.195Z,7.63
2018-10-05T15:17:08.971Z,9.50
2018-10-05T15:19:37.625Z,8.63
2018-10-05T15:22:05.734Z,7.37
2018-10-05T15:24:34.047Z,8.40
2018-10-05T15:27:01.651Z,9.30
2018-10-05T15:29:29.647Z,8.00
2018-10-05T15:31:57.996Z,5.63
2018-10-05T15:34:25.369Z,7.43
2018-10-05T15:36:52.913Z,8.50
2018-10-05T15:39:20.458Z,5.60
2018-10-05T15:41:47.808Z,8.13
2018-10-05T15:44:16.446Z,7.90
2018-10-05T15:47:06.820Z,6.23
2018-10-05T15:49:36.427Z,5.97
2018-10-05T15:52:03.948Z,6.10
2018-10-05T15:54:32.638Z,10.23
2018-10-05T15:57:01.183Z,7.30
2018-10-05T15:59:29.039Z,5.77
2018-10-05T16:01:56.567Z,9.30
2018-10-05T16:04:24.542Z,5.53
2018-10-05T16:06:52.230Z,5.37
2018-10-05T16:09:20.276Z,5.80
2018-10-05T16:11:47.879Z,7.13
2018-10-05T16:14:15.266Z,10.27
2018-10-05T16:16:43.111Z,10.67
2018-10-05T16:19:14.500Z,5.43
2018-10-05T16:21:41.894Z,11.67
2018-10-05T16:24:11.539Z,8.07
2018-10-05T16:26:39.210Z,5.80
2018-10-05T16:29:07.221Z,6.00
2018-10-05T16:31:37.362Z,9.33
2018-10-05T16:34:05.858Z,9.70
2018-10-05T16:36:33.488Z,8.57
2018-10-05T16:39:00.861Z,10.67
2018-10-05T16:41:28.847Z,8.60
2018-10-05T16:43:56.289Z,5.83
2018-10-05T16:46:23.884Z,8.00
2018-10-05T16:48:51.246Z,7.40
2018-10-05T16:51:18.805Z,8.90
2018-10-05T16:53:46.576Z,8.00
2018-10-05T16:56:14.354Z,13.30
2018-10-05T16:58:41.655Z,8.83
2018-10-05T17:01:09.322Z,9.05
2018-10-05T17:03:37.435Z,14.13
2018-10-05T17:06:05.301Z,7.58
2018-10-05T17:08:35.155Z,8.18
2018-10-05T17:11:02.557Z,14.75
2018-10-05T17:13:29.845Z,10.65
2018-10-05T17:15:57.447Z,7.65
2018-10-05T17:18:25.260Z,9.83
2018-10-05T17:20:52.923Z,10.35
2018-10-05T17:23:20.202Z,8.35
2018-10-05T17:25:47.567Z,9.00
2018-10-05T17:28:14.914Z,9.90
2018-10-05T17:30:42.255Z,9.85
2018-10-05T17:33:09.576Z,10.95
2018-10-05T17:35:36.908Z,11.68
2018-10-05T17:38:04.315Z,10.13
2018-10-05T17:40:31.607Z,15.50
2018-10-05T17:42:58.932Z,9.90
2018-10-05T17:45:26.855Z,9.18
2018-10-05T17:47:54.390Z,10.85
2018-10-05T17:50:21.786Z,10.10
2018-10-05T17:52:49.121Z,10.25
2018-10-05T17:55:16.938Z,11.73
2018-10-05T17:57:44.466Z,10.20
2018-10-05T18:00:11.957Z,9.43
2018-10-05T18:02:39.256Z,8.53
2018-10-05T18:05:06.885Z,10.90
2018-10-05T18:07:34.453Z,10.90
2018-10-05T18:10:02.357Z,13.35
2018-10-05T18:12:29.939Z,13.05
2018-10-05T18:14:57.599Z,16.60
2018-10-05T18:17:24.918Z,14.13
2018-10-05T18:19:52.326Z,18.23
2018-10-05T18:22:19.764Z,22.32
2018-10-05T18:24:47.098Z,17.00
2018-10-05T18:27:14.447Z,16.62
2018-10-05T18:29:41.868Z,15.30
2018-10-05T18:32:09.231Z,16.60
2018-10-05T18:34:36.884Z,14.23
2018-10-05T18:37:04.253Z,15.88
2018-10-05T18:39:31.592Z,13.40
2018-10-05T18:41:59.157Z,12.90
2018-10-05T18:44:26.741Z,17.10
2018-10-05T18:46:54.572Z,13.43
2018-10-05T18:49:21.939Z,14.10
2018-10-05T18:51:49.433Z,13.85
2018-10-05T18:54:17.067Z,13.93
2018-10-05T18:56:49.940Z,15.55
2018-10-05T18:59:17.298Z,13.32
2018-10-05T19:01:44.774Z,15.00
2018-10-05T19:04:12.207Z,16.12
2018-10-05T19:06:39.813Z,12.90
2018-10-05T19:09:07.383Z,11.60
2018-10-05T19:11:35.716Z,12.70
2018-10-05T19:14:03.067Z,17.10
2018-10-05T19:16:30.485Z,13.70
2018-10-05T19:18:57.824Z,14.65
2018-10-05T19:21:25.227Z,16.40
2018-10-05T19:23:52.518Z,17.45
2018-10-05T19:26:20.218Z,14.98
2018-10-05T19:28:48.100Z,16.70
2018-10-05T19:31:15.759Z,14.20
2018-10-05T19:33:43.144Z,17.32
2018-10-05T19:36:10.492Z,12.63
2018-10-05T19:38:39.179Z,16.23
2018-10-05T19:41:06.728Z,12.00
2018-10-05T19:43:34.342Z,13.28
2018-10-05T19:46:01.971Z,12.68
2018-10-05T19:48:29.786Z,11.25
2018-10-05T19:53:41.363Z,13.50
2018-10-05T19:56:08.849Z,13.38
2018-10-05T19:58:36.543Z,14.80
2018-10-05T20:01:04.147Z,15.72
2018-10-05T20:03:31.668Z,9.80
2018-10-05T20:05:59.449Z,13.85
2018-10-05T20:08:26.980Z,11.22
2018-10-05T20:10:54.947Z,14.07
2018-10-05T20:13:23.004Z,14.07
2018-10-05T20:15:50.474Z,22.65
2018-10-05T20:18:17.995Z,39.15
2018-10-05T20:20:45.747Z,35.60
2018-10-05T20:23:13.426Z,23.20
2018-10-05T20:25:40.883Z,26.45
2018-10-05T20:28:08.425Z,25.77
2018-10-05T20:30:36.420Z,27.13
2018-10-05T20:33:04.244Z,27.82
2018-10-05T20:35:34.160Z,34.23
2018-10-05T20:38:03.572Z,32.13
2018-10-05T20:40:32.137Z,32.67
2018-10-05T20:43:01.639Z,36.88
2018-10-05T20:45:30.270Z,30.37
2018-10-05T20:47:58.065Z,25.15
2018-10-05T20:50:26.627Z,28.73
2018-10-05T20:52:57.203Z,38.08
2018-10-05T20:55:25.050Z,13.25
2018-10-05T20:57:53.131Z,24.60
2018-10-05T21:00:20.645Z,12.68
2018-10-05T21:02:49.502Z,22.50
2018-10-05T21:05:17.508Z,20.37
2018-10-05T21:07:46.393Z,17.80
2018-10-05T21:10:14.547Z,16.02
2018-10-05T21:12:45.208Z,15.10
2018-10-05T21:15:12.838Z,15.03
2018-10-05T21:17:40.635Z,14.25
2018-10-05T21:20:08.607Z,14.68
2018-10-05T21:22:38.543Z,13.45
2018-10-05T21:25:07.241Z,11.65
2018-10-05T21:27:35.154Z,10.55
2018-10-05T21:30:06.637Z,9.85
2018-10-05T21:32:35.481Z,12.13
2018-10-05T21:35:03.029Z,12.58
2018-10-05T21:37:38.899Z,12.43
2018-10-05T21:40:10.065Z,10.78
2018-10-05T21:42:42.221Z,12.88
2018-10-05T21:45:10.402Z,12.70
2018-10-05T21:47:39.600Z,12.43
2018-10-05T21:50:08.940Z,10.65
2018-10-05T21:52:37.263Z,10.50
2018-10-05T21:55:06.548Z,10.63
2018-10-05T21:57:34.213Z,10.58
2018-10-05T22:00:01.774Z,10.85
2018-10-05T22:02:35.815Z,14.05
2018-10-05T22:05:04.697Z,9.33
2018-10-05T22:07:32.481Z,7.90
2018-10-05T22:10:00.610Z,10.85
2018-10-05T22:12:28.832Z,9.23
2018-10-05T22:14:56.659Z,8.58
2018-10-05T22:17:25.791Z,10.00
2018-10-05T22:19:53.404Z,7.05
2018-10-05T22:22:21.027Z,9.90
2018-10-05T22:24:48.391Z,11.15
2018-10-05T22:27:15.992Z,8.00
2018-10-05T22:29:43.371Z,9.73
2018-10-05T22:32:10.692Z,9.48
2018-10-05T22:37:54.585Z,8.88
2018-10-05T22:40:22.454Z,9.88
2018-10-05T22:42:50.351Z,8.18
2018-10-05T22:45:18.134Z,11.15
2018-10-05T22:47:45.689Z,9.85
2018-10-05T22:50:13.842Z,10.05
2018-10-05T22:52:41.874Z,12.58
2018-10-05T22:55:09.511Z,8.90
2018-10-05T22:57:36.976Z,10.80
2018-10-05T23:00:04.786Z,10.45
2018-10-05T23:02:32.232Z,8.85
2018-10-05T23:04:59.629Z,8.98
2018-10-05T23:07:27.079Z,14.78
2018-10-05T23:09:54.393Z,10.63
2018-10-05T23:12:21.883Z,8.83
2018-10-05T23:14:49.190Z,8.45
2018-10-05T23:17:16.473Z,9.78
2018-10-05T23:19:43.764Z,11.18
2018-10-05T23:22:11.093Z,9.15
2018-10-05T23:24:38.482Z,8.13
2018-10-05T23:27:06.041Z,9.13
2018-10-05T23:29:45.099Z,8.68
2018-10-05T23:32:12.998Z,10.28
2018-10-05T23:34:40.583Z,9.38
2018-10-05T23:37:07.969Z,10.00
2018-10-05T23:39:35.251Z,12.63
2018-10-05T23:42:02.568Z,8.63
2018-10-05T23:44:29.813Z,7.75
2018-10-05T23:46:57.293Z,8.13
2018-10-05T23:49:24.583Z,9.45
2018-10-05T23:51:51.885Z,13.35
2018-10-05T23:54:19.229Z,10.58
2018-10-05T23:56:46.638Z,9.13
2018-10-05T23:59:14.031Z,9.25
